createdAt,value
2022-08-09T00:01:43.185Z,100860.87
2022-08-09T00:05:03.739Z,100862.62
2022-08-09T00:08:32.641Z,100860.00
2022-08-09T00:12:02.992Z,100859.97
2022-08-09T00:14:57.392Z,100856.50
2022-08-09T00:18:09.289Z,100852.97
2022-08-09T00:21:13.422Z,100852.00
2022-08-09T00:24:15.447Z,100858.16
2022-08-09T00:27:21.701Z,100852.00
2022-08-09T00:30:25.456Z,100857.22
2022-08-09T00:33:32.552Z,100850.09
2022-08-09T00:36:49.814Z,100852.75
2022-08-09T00:40:13.363Z,100856.31
2022-08-09T00:44:13.805Z,100842.31
2022-08-09T00:46:55.615Z,100835.19
2022-08-09T00:49:58.938Z,100837.81
2022-08-09T00:53:00.998Z,100838.66
2022-08-09T00:56:14.286Z,100836.97
2022-08-09T00:59:31.681Z,100830.72
2022-08-09T01:02:42.942Z,100833.41
2022-08-09T01:06:17.677Z,100828.19
2022-08-09T01:09:36.627Z,100824.66
2022-08-09T01:12:45.142Z,100830.81
2022-08-09T01:15:51.859Z,100834.25
2022-08-09T01:19:02.616Z,100835.91
2022-08-09T01:22:16.437Z,100832.53
2022-08-09T01:25:42.066Z,100829.87
2022-08-09T01:28:54.142Z,100835.16
2022-08-09T01:32:32.043Z,100840.47
2022-08-09T01:35:37.366Z,100840.41
2022-08-09T01:38:46.563Z,100844.78
2022-08-09T01:41:53.451Z,100844.78
2022-08-09T01:45:05.574Z,100853.72
2022-08-09T01:48:10.290Z,100852.78
2022-08-09T01:51:22.703Z,100835.25
2022-08-09T01:54:32.921Z,100839.66
2022-08-09T01:57:44.294Z,100838.75
2022-08-09T02:00:50.513Z,100844.94
2022-08-09T02:03:55.926Z,100856.44
2022-08-09T02:08:34.889Z,100846.69
2022-08-09T02:10:42.828Z,100842.28
2022-08-09T02:14:07.404Z,100848.50
2022-08-09T02:17:15.006Z,100845.88
2022-08-09T02:20:45.157Z,100843.22
2022-08-09T02:23:56.512Z,100836.19
2022-08-09T02:27:01.985Z,100826.50
2022-08-09T02:30:06.169Z,100824.72
2022-08-09T02:33:14.564Z,100830.00
2022-08-09T02:36:22.563Z,100821.22
2022-08-09T02:39:42.065Z,100814.13
2022-08-09T02:42:50.999Z,100813.28
2022-08-09T02:45:54.198Z,100808.84
2022-08-09T02:49:01.259Z,100815.88
2022-08-09T02:52:07.827Z,100807.97
2022-08-09T02:55:15.896Z,100808.00
2022-08-09T02:58:36.849Z,100812.38
2022-08-09T03:01:43.349Z,100817.63
2022-08-09T03:05:03.467Z,100828.22
2022-08-09T03:08:09.792Z,100827.31
2022-08-09T03:12:04.814Z,100827.31
2022-08-09T03:14:40.106Z,100825.53
2022-08-09T03:17:43.901Z,100834.28
2022-08-09T03:20:46.412Z,100828.12
2022-08-09T03:24:01.550Z,100835.19
2022-08-09T03:27:10.676Z,100835.19
2022-08-09T03:30:30.145Z,100843.13
2022-08-09T03:33:54.096Z,100829.91
2022-08-09T03:36:59.798Z,100831.72
2022-08-09T03:40:05.053Z,100825.53
2022-08-09T03:43:06.761Z,100836.13
2022-08-09T03:46:27.153Z,100828.16
2022-08-09T03:49:35.559Z,100820.22
2022-08-09T03:52:41.719Z,100820.22
2022-08-09T03:55:43.970Z,100818.47
2022-08-09T03:58:46.768Z,100817.56
2022-08-09T04:01:53.810Z,100809.69
2022-08-09T04:05:06.268Z,100813.25
2022-08-09T04:08:08.833Z,100813.22
2022-08-09T04:11:11.689Z,100822.03
2022-08-09T04:14:53.945Z,100827.34
2022-08-09T04:17:42.303Z,100832.66
2022-08-09T04:20:47.527Z,100833.56
2022-08-09T04:23:53.904Z,100841.53
2022-08-09T04:26:56.211Z,100850.37
2022-08-09T04:29:58.380Z,100855.62
2022-08-09T04:33:01.224Z,100857.34
2022-08-09T04:36:03.440Z,100861.84
2022-08-09T04:39:09.856Z,100868.91
2022-08-09T04:42:15.735Z,100878.63
2022-08-09T04:45:20.696Z,100879.53
2022-08-09T04:48:23.871Z,100881.25
2022-08-09T04:51:35.512Z,100883.91
2022-08-09T04:54:38.721Z,100885.66
2022-08-09T04:57:58.702Z,100896.25
2022-08-09T05:01:02.668Z,100889.22
2022-08-09T05:04:05.453Z,100895.38
2022-08-09T05:07:07.306Z,100897.16
2022-08-09T05:10:20.718Z,100887.44
2022-08-09T05:13:22.579Z,100898.91
2022-08-09T05:16:31.751Z,100903.31
2022-08-09T05:19:44.964Z,100902.44
2022-08-09T05:23:54.237Z,100911.25
2022-08-09T05:26:31.665Z,100909.50
2022-08-09T05:29:39.490Z,100911.25
2022-08-09T05:32:42.033Z,100908.59
2022-08-09T05:35:46.902Z,100911.25
2022-08-09T05:38:52.279Z,100905.94
2022-08-09T05:41:54.167Z,100918.34
2022-08-09T05:44:57.395Z,100918.31
2022-08-09T05:48:01.385Z,100916.53
2022-08-09T05:51:30.110Z,100921.81
2022-08-09T05:54:25.216Z,100918.28
2022-08-09T05:57:51.178Z,100912.94
2022-08-09T06:00:49.686Z,100918.22
2022-08-09T06:03:57.997Z,100921.78
2022-08-09T06:07:00.551Z,100930.50
2022-08-09T06:10:04.031Z,100917.34
2022-08-09T06:13:18.506Z,100919.94
2022-08-09T06:16:22.592Z,100925.22
2022-08-09T06:19:24.652Z,100925.25
2022-08-09T06:22:29.449Z,100921.66
2022-08-09T06:25:31.734Z,100926.97
2022-08-09T06:28:36.153Z,100922.47
2022-08-09T06:32:09.010Z,100919.78
2022-08-09T06:35:00.741Z,100925.56
2022-08-09T06:38:06.035Z,100919.31
2022-08-09T06:41:18.309Z,100915.88
2022-08-09T06:44:21.160Z,100915.72
2022-08-09T06:47:23.734Z,100918.00
2022-08-09T06:50:26.153Z,100911.63
2022-08-09T06:53:33.255Z,100911.37
2022-08-09T06:56:40.511Z,100910.16
2022-08-09T07:00:55.745Z,100913.31
2022-08-09T07:03:09.095Z,100912.16
2022-08-09T07:06:12.915Z,100907.66
2022-08-09T07:09:57.064Z,100905.81
2022-08-09T07:12:41.042Z,100910.56
2022-08-09T07:15:54.014Z,100910.59
2022-08-09T07:19:06.342Z,100911.91
2022-08-09T07:22:10.788Z,100918.22
2022-08-09T07:25:13.310Z,100911.84
2022-08-09T07:28:18.972Z,100914.25
2022-08-09T07:31:21.409Z,100920.97
2022-08-09T07:34:26.735Z,100918.78
2022-08-09T07:37:28.435Z,100913.69
2022-08-09T07:40:46.270Z,100915.63
2022-08-09T07:43:56.503Z,100907.66
2022-08-09T07:46:58.421Z,100916.09
2022-08-09T07:50:08.345Z,100914.84
2022-08-09T07:53:10.951Z,100913.47
2022-08-09T07:56:27.254Z,100911.91
2022-08-09T07:59:45.874Z,100904.91
2022-08-09T08:02:59.557Z,100908.69
2022-08-09T08:06:01.947Z,100908.13
2022-08-09T08:09:07.507Z,100905.78
2022-08-09T08:12:28.420Z,100904.16
2022-08-09T08:15:35.532Z,100903.38
2022-08-09T08:18:39.572Z,100900.28
2022-08-09T08:21:52.905Z,100901.25
2022-08-09T08:24:57.632Z,100908.06
2022-08-09T08:27:59.386Z,100901.47
2022-08-09T08:31:10.637Z,100900.38
2022-08-09T08:34:17.044Z,100901.66
2022-08-09T08:37:22.619Z,100894.13
2022-08-09T08:40:26.964Z,100907.97
2022-08-09T08:43:31.818Z,100904.41
2022-08-09T08:46:41.487Z,100914.16
2022-08-09T08:50:03.006Z,100903.56
2022-08-09T08:53:05.825Z,100909.34
2022-08-09T08:56:27.968Z,100904.03
2022-08-09T08:59:46.713Z,100911.50
2022-08-09T09:02:52.534Z,100904.87
2022-08-09T09:06:03.290Z,100904.97
2022-08-09T09:09:20.736Z,100897.94
2022-08-09T09:12:34.241Z,100899.56
2022-08-09T09:15:38.565Z,100901.97
2022-08-09T09:18:48.017Z,100903.12
2022-08-09T09:22:04.025Z,100906.56
2022-08-09T09:26:02.127Z,100902.34
2022-08-09T09:29:02.387Z,100896.88
2022-08-09T09:32:04.085Z,100900.88
2022-08-09T09:35:17.753Z,100897.72
2022-08-09T09:38:36.399Z,100898.13
2022-08-09T09:41:48.812Z,100900.44
2022-08-09T09:45:03.763Z,100898.31
2022-08-09T09:48:05.826Z,100892.31
2022-08-09T09:51:11.525Z,100892.44
2022-08-09T09:54:22.524Z,100895.22
2022-08-09T09:58:03.710Z,100900.41
2022-08-09T10:00:58.836Z,100897.25
2022-08-09T10:04:04.353Z,100897.28
2022-08-09T10:07:24.190Z,100892.62
2022-08-09T10:10:31.697Z,100887.38
2022-08-09T10:13:43.358Z,100893.69
2022-08-09T10:16:56.897Z,100897.69
2022-08-09T10:20:35.488Z,100893.38
2022-08-09T10:23:37.953Z,100881.50
2022-08-09T10:26:42.059Z,100874.34
2022-08-09T10:30:16.556Z,100877.84
2022-08-09T10:33:29.654Z,100871.53
2022-08-09T10:36:33.043Z,100869.34
2022-08-09T10:39:40.575Z,100871.88
2022-08-09T10:42:52.847Z,100862.41
2022-08-09T10:45:59.939Z,100860.87
2022-08-09T10:49:19.845Z,100861.81
2022-08-09T10:53:00.193Z,100866.19
2022-08-09T10:56:17.626Z,100861.47
2022-08-09T10:59:31.704Z,100862.41
2022-08-09T11:03:15.687Z,100856.38
2022-08-09T11:06:15.975Z,100852.69
2022-08-09T11:09:19.879Z,100852.41
2022-08-09T11:12:30.367Z,100855.56
2022-08-09T11:15:33.949Z,100841.13
2022-08-09T11:18:46.117Z,100844.72
2022-08-09T11:22:18.480Z,100844.53
2022-08-09T11:25:25.919Z,100843.34
2022-08-09T11:28:56.320Z,100832.44
2022-08-09T11:31:59.176Z,100832.66
2022-08-09T11:35:09.201Z,100823.16
2022-08-09T11:38:18.169Z,100830.53
2022-08-09T11:41:21.288Z,100820.50
2022-08-09T11:44:44.075Z,100808.81
2022-08-09T11:47:47.137Z,100815.75
2022-08-09T11:52:56.558Z,100814.56
2022-08-09T11:54:28.667Z,100810.00
2022-08-09T11:57:47.592Z,100807.53
2022-08-09T12:01:08.308Z,100805.03
2022-08-09T12:04:20.869Z,100798.91
2022-08-09T12:07:41.173Z,100798.03
2022-08-09T12:10:49.966Z,100792.34
2022-08-09T12:14:09.083Z,100799.31
2022-08-09T12:17:27.829Z,100795.44
2022-08-09T12:20:43.768Z,100788.09
2022-08-09T12:24:06.227Z,100778.94
2022-08-09T12:29:10.642Z,100782.03
2022-08-09T12:30:43.067Z,100777.72
2022-08-09T12:33:59.310Z,100780.03
2022-08-09T12:37:21.412Z,100779.66
2022-08-09T12:40:30.272Z,100776.50
2022-08-09T12:44:07.009Z,100774.81
2022-08-09T12:46:55.744Z,100763.63
2022-08-09T12:50:19.857Z,100760.75
2022-08-09T12:53:38.487Z,100757.12
2022-08-09T12:56:53.714Z,100762.00
2022-08-09T13:00:35.014Z,100750.72
2022-08-09T13:03:54.116Z,100748.41
2022-08-09T13:07:10.138Z,100745.16
2022-08-09T13:10:11.881Z,100746.84
2022-08-09T13:13:15.255Z,100743.16
2022-08-09T13:16:17.465Z,100742.13
2022-08-09T13:20:08.900Z,100733.22
2022-08-09T13:24:05.752Z,100739.59
2022-08-09T13:26:40.077Z,100724.97
2022-08-09T13:30:04.310Z,100735.25
2022-08-09T13:33:24.613Z,100735.25
2022-08-09T13:36:46.449Z,100729.09
2022-08-09T13:41:46.924Z,100737.31
2022-08-09T13:43:15.976Z,100746.97
2022-08-09T13:47:16.357Z,100737.09
2022-08-09T13:49:56.522Z,100730.97
2022-08-09T13:53:02.693Z,100738.34
2022-08-09T13:56:05.973Z,100728.16
2022-08-09T13:59:13.715Z,100734.41
2022-08-09T14:02:25.900Z,100734.50
2022-08-09T14:05:59.081Z,100734.75
2022-08-09T14:08:49.890Z,100739.56
2022-08-09T14:11:53.304Z,100744.66
2022-08-09T14:14:56.545Z,100744.12
2022-08-09T14:18:19.388Z,100746.53
2022-08-09T14:21:22.302Z,100733.28
2022-08-09T14:24:32.473Z,100740.47
2022-08-09T14:27:37.124Z,100750.50
2022-08-09T14:30:57.587Z,100755.78
2022-08-09T14:34:04.341Z,100753.53
2022-08-09T14:37:10.209Z,100749.25
2022-08-09T14:40:12.430Z,100748.16
2022-08-09T14:43:18.542Z,100747.22
2022-08-09T14:46:57.639Z,100736.97
2022-08-09T14:49:49.174Z,100744.44
2022-08-09T14:53:11.557Z,100749.28
2022-08-09T14:56:14.001Z,100742.06
2022-08-09T14:59:15.837Z,100739.66
2022-08-09T15:02:17.912Z,100739.50
2022-08-09T15:05:22.438Z,100735.66
2022-08-09T15:08:24.579Z,100736.31
2022-08-09T15:11:26.521Z,100733.84
2022-08-09T15:14:33.993Z,100729.22
2022-08-09T15:17:41.950Z,100734.84
2022-08-09T15:22:01.246Z,100725.72
2022-08-09T15:24:12.742Z,100731.53
2022-08-09T15:27:16.106Z,100732.84
2022-08-09T15:30:58.870Z,100735.94
2022-08-09T15:34:17.477Z,100735.59
2022-08-09T15:37:04.384Z,100734.59
2022-08-09T15:40:11.475Z,100725.03
2022-08-09T15:43:14.327Z,100730.56
2022-08-09T15:46:32.415Z,100729.88
2022-08-09T15:49:36.614Z,100739.50
2022-08-09T15:52:42.390Z,100743.81
2022-08-09T15:56:21.419Z,100743.06
2022-08-09T15:59:19.484Z,100748.38
2022-08-09T16:02:26.947Z,100745.59
2022-08-09T16:05:47.511Z,100739.66
2022-08-09T16:08:52.129Z,100748.56
2022-08-09T16:11:54.623Z,100735.13
2022-08-09T16:15:01.361Z,100742.37
2022-08-09T16:18:04.999Z,100747.66
2022-08-09T16:21:06.679Z,100752.28
2022-08-09T16:24:19.968Z,100750.56
2022-08-09T16:27:31.885Z,100754.41
2022-08-09T16:30:37.889Z,100758.91
2022-08-09T16:33:46.291Z,100748.22
2022-08-09T16:36:47.974Z,100760.19
2022-08-09T16:40:04.335Z,100746.53
2022-08-09T16:43:07.004Z,100760.59
2022-08-09T16:46:09.355Z,100758.66
2022-08-09T16:49:25.824Z,100761.06
2022-08-09T16:52:37.037Z,100756.81
2022-08-09T16:55:57.924Z,100765.38
2022-08-09T16:59:10.211Z,100775.78
2022-08-09T17:02:13.810Z,100772.91
2022-08-09T17:05:19.699Z,100781.19
2022-08-09T17:08:47.089Z,100779.97
2022-08-09T17:11:44.492Z,100789.63
2022-08-09T17:14:57.689Z,100793.22
2022-08-09T17:18:00.730Z,100798.03
2022-08-09T17:21:02.885Z,100803.63
2022-08-09T17:24:20.422Z,100801.38
2022-08-09T17:27:23.744Z,100802.75
2022-08-09T17:30:30.859Z,100825.12
2022-08-09T17:33:37.766Z,100828.25
2022-08-09T17:36:39.730Z,100829.06
2022-08-09T17:39:55.666Z,100824.91
2022-08-09T17:43:03.162Z,100830.81
2022-08-09T17:46:12.942Z,100834.47
2022-08-09T17:49:18.615Z,100840.19
2022-08-09T17:52:22.515Z,100844.78
2022-08-09T17:55:24.385Z,100842.12
2022-08-09T17:58:46.166Z,100850.47
2022-08-09T18:02:07.912Z,100851.41
2022-08-09T18:05:13.168Z,100855.84
2022-08-09T18:08:15.025Z,100862.25
2022-08-09T18:11:18.062Z,100858.75
2022-08-09T18:14:26.474Z,100857.03
2022-08-09T18:18:03.703Z,100863.38
2022-08-09T18:20:53.814Z,100875.22
2022-08-09T18:24:10.627Z,100875.50
2022-08-09T18:27:18.804Z,100894.28
2022-08-09T18:30:49.234Z,100912.00
2022-08-09T18:33:54.153Z,100920.97
2022-08-09T18:37:03.678Z,100921.25
2022-08-09T18:40:07.541Z,100922.06
2022-08-09T18:43:09.805Z,100918.59
2022-08-09T18:46:46.929Z,100924.94
2022-08-09T18:49:41.733Z,100932.91
2022-08-09T18:52:50.974Z,100942.75
2022-08-09T18:55:56.871Z,100945.53
2022-08-09T18:59:07.392Z,100943.88
2022-08-09T19:02:12.000Z,100942.06
2022-08-09T19:05:28.728Z,100943.13
2022-08-09T19:08:38.848Z,100956.75
2022-08-09T19:11:41.618Z,100961.28
2022-08-09T19:14:43.641Z,100968.63
2022-08-09T19:17:54.549Z,100969.37
2022-08-09T19:20:58.702Z,100976.56
2022-08-09T19:24:32.452Z,100982.72
2022-08-09T19:27:28.347Z,100981.03
2022-08-09T19:30:32.339Z,100974.94
2022-08-09T19:33:34.767Z,100968.63
2022-08-09T19:36:36.835Z,100972.16
2022-08-09T19:40:02.298Z,100978.56
2022-08-09T19:43:00.776Z,100984.94
2022-08-09T19:46:02.844Z,100983.97
2022-08-09T19:50:05.211Z,100990.09
2022-08-09T19:52:29.145Z,100990.25
2022-08-09T19:56:02.500Z,100980.56
2022-08-09T19:59:18.102Z,100984.41
2022-08-09T20:04:12.175Z,100981.00
2022-08-09T20:05:46.371Z,100990.75
2022-08-09T20:08:55.306Z,100991.97
2022-08-09T20:12:02.442Z,100997.94
2022-08-09T20:16:35.772Z,100999.78
2022-08-09T20:18:28.500Z,100999.94
2022-08-09T20:21:55.033Z,101007.97
2022-08-09T20:24:54.156Z,101016.81
2022-08-09T20:27:56.390Z,101015.00
2022-08-09T20:30:58.427Z,101023.87
2022-08-09T20:34:01.937Z,101030.25
2022-08-09T20:37:04.511Z,101034.00
2022-08-09T20:40:17.422Z,101034.03
2022-08-09T20:43:24.249Z,101034.84
2022-08-09T20:46:42.157Z,101036.66
2022-08-09T20:49:44.498Z,101035.03
2022-08-09T20:52:46.275Z,101033.06
2022-08-09T20:56:02.071Z,101034.88
2022-08-09T20:59:04.878Z,101034.03
2022-08-09T21:02:07.556Z,101034.03
2022-08-09T21:05:57.009Z,101029.69
2022-08-09T21:08:36.208Z,101026.94
2022-08-09T21:15:02.936Z,101027.94
2022-08-09T21:18:22.260Z,101025.25
2022-08-09T21:21:52.796Z,101023.34
2022-08-09T21:25:07.109Z,101017.38
2022-08-09T21:28:12.203Z,101017.31
2022-08-09T21:31:19.950Z,101012.87
2022-08-09T21:34:29.214Z,101015.69
2022-08-09T21:37:35.477Z,101010.44
2022-08-09T21:40:50.701Z,101003.37
2022-08-09T21:43:57.905Z,101004.34
2022-08-09T21:46:59.964Z,101003.44
2022-08-09T21:50:02.112Z,101004.28
2022-08-09T21:53:06.337Z,101010.44
2022-08-09T21:56:34.000Z,101004.22
2022-08-09T21:59:42.833Z,101009.69
2022-08-09T22:02:51.039Z,101015.06
2022-08-09T22:06:01.438Z,101010.78
2022-08-09T22:09:03.756Z,101006.28
2022-08-09T22:12:18.590Z,101013.53
2022-08-09T22:15:23.414Z,101024.94
2022-08-09T22:18:52.295Z,101021.47
2022-08-09T22:21:56.693Z,101012.66
2022-08-09T22:26:05.421Z,101015.38
2022-08-09T22:28:21.146Z,101006.56
2022-08-09T22:31:35.984Z,101006.56
2022-08-09T22:34:41.049Z,101005.69
2022-08-09T22:37:42.942Z,101011.00
2022-08-09T22:40:48.982Z,101009.22
2022-08-09T22:44:03.230Z,101004.81
2022-08-09T22:48:12.251Z,100995.97
2022-08-09T22:50:28.165Z,100999.50
2022-08-09T22:53:44.478Z,101006.59
2022-08-09T22:56:54.701Z,101000.38
2022-08-09T22:59:59.462Z,100993.37
2022-08-09T23:03:01.539Z,100990.66
2022-08-09T23:06:03.939Z,100987.97
2022-08-09T23:09:06.965Z,100989.72
2022-08-09T23:12:08.648Z,100982.59
2022-08-09T23:15:11.393Z,100976.28
2022-08-09T23:18:13.303Z,100979.03
2022-08-09T23:21:24.186Z,100978.94
2022-08-09T23:24:27.964Z,100978.00
2022-08-09T23:27:29.823Z,100973.56
2022-08-09T23:30:31.829Z,100983.31
2022-08-09T23:33:33.463Z,100972.69
2022-08-09T23:36:36.497Z,100973.47
2022-08-09T23:39:38.184Z,100970.78
2022-08-09T23:42:40.629Z,100979.78
2022-08-09T23:45:42.399Z,100980.72
2022-08-09T23:48:44.242Z,100974.53
2022-08-09T23:51:46.067Z,100975.53
2022-08-09T23:54:48.115Z,100973.78
2022-08-09T23:58:07.877Z,100973.72
